sensor_id;sensor_type;location;lat;lon;timestamp;P1;durP1;ratioP1;P2;durP2;ratioP2
53666;SDS011;39568;51.026;5.468;2023-05-31T00:01:17;16.83;;;10.15;;
53666;SDS011;39568;51.026;5.468;2023-05-31T00:03:44;14.00;;;10.45;;
53666;SDS011;39568;51.026;5.468;2023-05-31T00:06:11;15.43;;;10.68;;
53666;SDS011;39568;51.026;5.468;2023-05-31T00:08:39;18.92;;;10.63;;
53666;SDS011;39568;51.026;5.468;2023-05-31T00:11:06;13.80;;;10.18;;
53666;SDS011;39568;51.026;5.468;2023-05-31T00:13:33;13.40;;;10.48;;
53666;SDS011;39568;51.026;5.468;2023-05-31T00:16:00;14.35;;;10.60;;
53666;SDS011;39568;51.026;5.468;2023-05-31T00:18:27;11.95;;;10.85;;
53666;SDS011;39568;51.026;5.468;2023-05-31T00:20:57;15.60;;;11.48;;
53666;SDS011;39568;51.026;5.468;2023-05-31T00:23:31;17.30;;;10.68;;
53666;SDS011;39568;51.026;5.468;2023-05-31T00:26:07;11.98;;;10.88;;
53666;SDS011;39568;51.026;5.468;2023-05-31T00:28:33;15.50;;;11.50;;
53666;SDS011;39568;51.026;5.468;2023-05-31T00:31:00;13.30;;;10.13;;
53666;SDS011;39568;51.026;5.468;2023-05-31T00:33:27;14.10;;;11.48;;
53666;SDS011;39568;51.026;5.468;2023-05-31T00:35:54;13.60;;;11.05;;
53666;SDS011;39568;51.026;5.468;2023-05-31T00:38:20;12.55;;;10.80;;
53666;SDS011;39568;51.026;5.468;2023-05-31T00:40:47;12.00;;;10.90;;
53666;SDS011;39568;51.026;5.468;2023-05-31T00:43:15;17.52;;;11.70;;
53666;SDS011;39568;51.026;5.468;2023-05-31T00:45:43;14.23;;;11.10;;
53666;SDS011;39568;51.026;5.468;2023-05-31T00:48:10;14.65;;;12.35;;
53666;SDS011;39568;51.026;5.468;2023-05-31T00:50:41;18.40;;;11.82;;
53666;SDS011;39568;51.026;5.468;2023-05-31T00:53:07;13.18;;;11.07;;
53666;SDS011;39568;51.026;5.468;2023-05-31T00:55:34;13.98;;;12.05;;
53666;SDS011;39568;51.026;5.468;2023-05-31T00:58:03;13.57;;;12.15;;
53666;SDS011;39568;51.026;5.468;2023-05-31T01:03:01;16.23;;;12.17;;
53666;SDS011;39568;51.026;5.468;2023-05-31T01:05:29;14.23;;;12.18;;
53666;SDS011;39568;51.026;5.468;2023-05-31T01:07:55;17.25;;;12.25;;
53666;SDS011;39568;51.026;5.468;2023-05-31T01:10:23;15.23;;;12.30;;
53666;SDS011;39568;51.026;5.468;2023-05-31T01:12:52;16.60;;;13.13;;
53666;SDS011;39568;51.026;5.468;2023-05-31T01:15:27;17.05;;;12.98;;
53666;SDS011;39568;51.026;5.468;2023-05-31T01:18:02;15.32;;;13.70;;
53666;SDS011;39568;51.026;5.468;2023-05-31T01:20:35;15.88;;;14.20;;
53666;SDS011;39568;51.026;5.468;2023-05-31T01:23:10;20.38;;;13.85;;
53666;SDS011;39568;51.026;5.468;2023-05-31T01:25:52;17.75;;;13.32;;
53666;SDS011;39568;51.026;5.468;2023-05-31T01:28:34;16.55;;;13.68;;
53666;SDS011;39568;51.026;5.468;2023-05-31T01:31:04;18.15;;;16.33;;
53666;SDS011;39568;51.026;5.468;2023-05-31T01:33:34;19.40;;;14.60;;
53666;SDS011;39568;51.026;5.468;2023-05-31T01:36:02;17.98;;;15.52;;
53666;SDS011;39568;51.026;5.468;2023-05-31T01:38:29;17.92;;;15.10;;
53666;SDS011;39568;51.026;5.468;2023-05-31T01:40:56;18.58;;;16.30;;
53666;SDS011;39568;51.026;5.468;2023-05-31T01:43:24;20.75;;;15.75;;
53666;SDS011;39568;51.026;5.468;2023-05-31T01:45:54;27.45;;;16.73;;
53666;SDS011;39568;51.026;5.468;2023-05-31T01:48:24;21.20;;;17.20;;
53666;SDS011;39568;51.026;5.468;2023-05-31T01:50:55;18.73;;;16.38;;
53666;SDS011;39568;51.026;5.468;2023-05-31T01:53:24;17.52;;;14.90;;
53666;SDS011;39568;51.026;5.468;2023-05-31T01:55:51;19.98;;;16.08;;
53666;SDS011;39568;51.026;5.468;2023-05-31T01:58:20;21.42;;;15.85;;
53666;SDS011;39568;51.026;5.468;2023-05-31T02:00:49;18.08;;;16.02;;
53666;SDS011;39568;51.026;5.468;2023-05-31T02:03:18;28.42;;;16.70;;
53666;SDS011;39568;51.026;5.468;2023-05-31T02:05:54;18.67;;;16.63;;
53666;SDS011;39568;51.026;5.468;2023-05-31T02:08:22;23.23;;;17.92;;
53666;SDS011;39568;51.026;5.468;2023-05-31T02:10:51;18.70;;;16.67;;
53666;SDS011;39568;51.026;5.468;2023-05-31T02:13:17;25.27;;;17.90;;
53666;SDS011;39568;51.026;5.468;2023-05-31T02:15:44;21.48;;;18.38;;
53666;SDS011;39568;51.026;5.468;2023-05-31T02:18:11;25.95;;;18.98;;
53666;SDS011;39568;51.026;5.468;2023-05-31T02:20:43;22.20;;;17.52;;
53666;SDS011;39568;51.026;5.468;2023-05-31T02:23:11;24.80;;;18.58;;
53666;SDS011;39568;51.026;5.468;2023-05-31T02:25:37;24.42;;;18.35;;
53666;SDS011;39568;51.026;5.468;2023-05-31T02:28:04;23.17;;;19.40;;
53666;SDS011;39568;51.026;5.468;2023-05-31T02:30:31;20.15;;;18.00;;
53666;SDS011;39568;51.026;5.468;2023-05-31T02:33:01;24.35;;;18.45;;
53666;SDS011;39568;51.026;5.468;2023-05-31T02:35:27;33.55;;;20.58;;
53666;SDS011;39568;51.026;5.468;2023-05-31T02:37:56;23.75;;;20.15;;
53666;SDS011;39568;51.026;5.468;2023-05-31T02:40:23;25.45;;;19.45;;
53666;SDS011;39568;51.026;5.468;2023-05-31T02:42:50;27.98;;;20.98;;
53666;SDS011;39568;51.026;5.468;2023-05-31T02:45:18;23.23;;;20.02;;
53666;SDS011;39568;51.026;5.468;2023-05-31T02:47:48;26.77;;;18.70;;
53666;SDS011;39568;51.026;5.468;2023-05-31T02:50:15;28.00;;;20.52;;
53666;SDS011;39568;51.026;5.468;2023-05-31T02:52:43;29.33;;;20.85;;
53666;SDS011;39568;51.026;5.468;2023-05-31T02:55:11;24.60;;;20.25;;
53666;SDS011;39568;51.026;5.468;2023-05-31T02:57:37;27.13;;;19.98;;
53666;SDS011;39568;51.026;5.468;2023-05-31T03:00:09;30.25;;;22.48;;
53666;SDS011;39568;51.026;5.468;2023-05-31T03:02:37;26.27;;;21.52;;
53666;SDS011;39568;51.026;5.468;2023-05-31T03:05:05;34.92;;;21.55;;
53666;SDS011;39568;51.026;5.468;2023-05-31T03:07:34;26.23;;;21.10;;
53666;SDS011;39568;51.026;5.468;2023-05-31T03:10:01;28.73;;;21.83;;
53666;SDS011;39568;51.026;5.468;2023-05-31T03:12:30;26.48;;;23.30;;
53666;SDS011;39568;51.026;5.468;2023-05-31T03:14:57;26.70;;;23.83;;
53666;SDS011;39568;51.026;5.468;2023-05-31T03:17:25;29.85;;;23.80;;
53666;SDS011;39568;51.026;5.468;2023-05-31T03:19:54;25.63;;;21.52;;
53666;SDS011;39568;51.026;5.468;2023-05-31T03:22:20;28.00;;;23.02;;
53666;SDS011;39568;51.026;5.468;2023-05-31T03:24:52;39.38;;;24.92;;
53666;SDS011;39568;51.026;5.468;2023-05-31T03:27:21;29.13;;;22.48;;
53666;SDS011;39568;51.026;5.468;2023-05-31T03:29:52;28.42;;;22.67;;
53666;SDS011;39568;51.026;5.468;2023-05-31T03:32:20;29.13;;;22.40;;
53666;SDS011;39568;51.026;5.468;2023-05-31T03:34:47;26.75;;;22.73;;
53666;SDS011;39568;51.026;5.468;2023-05-31T03:37:14;29.90;;;23.35;;
53666;SDS011;39568;51.026;5.468;2023-05-31T03:39:41;27.60;;;21.13;;
53666;SDS011;39568;51.026;5.468;2023-05-31T03:42:07;31.90;;;22.60;;
53666;SDS011;39568;51.026;5.468;2023-05-31T03:44:34;27.10;;;23.70;;
53666;SDS011;39568;51.026;5.468;2023-05-31T03:47:02;32.25;;;24.60;;
53666;SDS011;39568;51.026;5.468;2023-05-31T03:49:30;27.65;;;23.80;;
53666;SDS011;39568;51.026;5.468;2023-05-31T03:51:57;28.45;;;23.98;;
53666;SDS011;39568;51.026;5.468;2023-05-31T03:54:26;34.47;;;24.20;;
53666;SDS011;39568;51.026;5.468;2023-05-31T03:56:54;28.63;;;23.08;;
53666;SDS011;39568;51.026;5.468;2023-05-31T03:59:21;28.70;;;23.83;;
53666;SDS011;39568;51.026;5.468;2023-05-31T04:01:47;37.20;;;25.83;;
53666;SDS011;39568;51.026;5.468;2023-05-31T04:04:16;29.50;;;23.83;;
53666;SDS011;39568;51.026;5.468;2023-05-31T04:06:42;36.00;;;22.83;;
53666;SDS011;39568;51.026;5.468;2023-05-31T04:09:09;27.05;;;24.00;;
53666;SDS011;39568;51.026;5.468;2023-05-31T04:11:36;32.00;;;23.60;;
53666;SDS011;39568;51.026;5.468;2023-05-31T04:14:07;27.57;;;22.73;;
53666;SDS011;39568;51.026;5.468;2023-05-31T04:16:36;31.83;;;23.45;;
53666;SDS011;39568;51.026;5.468;2023-05-31T04:19:03;28.83;;;22.00;;
53666;SDS011;39568;51.026;5.468;2023-05-31T04:21:31;37.20;;;24.00;;
53666;SDS011;39568;51.026;5.468;2023-05-31T04:23:58;29.88;;;22.77;;
53666;SDS011;39568;51.026;5.468;2023-05-31T04:26:25;35.80;;;21.92;;
53666;SDS011;39568;51.026;5.468;2023-05-31T04:28:54;30.35;;;22.83;;
53666;SDS011;39568;51.026;5.468;2023-05-31T04:31:24;26.45;;;22.70;;
53666;SDS011;39568;51.026;5.468;2023-05-31T04:33:53;32.25;;;22.27;;
53666;SDS011;39568;51.026;5.468;2023-05-31T04:36:25;27.20;;;21.02;;
53666;SDS011;39568;51.026;5.468;2023-05-31T04:39:01;26.27;;;22.52;;
53666;SDS011;39568;51.026;5.468;2023-05-31T04:41:34;27.50;;;22.75;;
53666;SDS011;39568;51.026;5.468;2023-05-31T04:44:00;26.08;;;20.75;;
53666;SDS011;39568;51.026;5.468;2023-05-31T04:46:32;26.70;;;21.25;;
53666;SDS011;39568;51.026;5.468;2023-05-31T04:48:59;22.23;;;19.25;;
53666;SDS011;39568;51.026;5.468;2023-05-31T04:51:26;27.95;;;20.50;;
53666;SDS011;39568;51.026;5.468;2023-05-31T04:53:52;28.65;;;20.80;;
53666;SDS011;39568;51.026;5.468;2023-05-31T04:56:20;24.95;;;19.63;;
53666;SDS011;39568;51.026;5.468;2023-05-31T04:58:47;23.58;;;18.83;;
53666;SDS011;39568;51.026;5.468;2023-05-31T05:01:14;24.83;;;20.65;;
53666;SDS011;39568;51.026;5.468;2023-05-31T05:03:40;24.20;;;20.10;;
53666;SDS011;39568;51.026;5.468;2023-05-31T05:06:11;21.90;;;19.08;;
53666;SDS011;39568;51.026;5.468;2023-05-31T05:08:40;23.67;;;19.38;;
53666;SDS011;39568;51.026;5.468;2023-05-31T05:11:07;26.73;;;19.05;;
53666;SDS011;39568;51.026;5.468;2023-05-31T05:13:35;21.85;;;18.70;;
53666;SDS011;39568;51.026;5.468;2023-05-31T05:16:06;19.80;;;17.70;;
53666;SDS011;39568;51.026;5.468;2023-05-31T05:18:33;24.40;;;19.10;;
53666;SDS011;39568;51.026;5.468;2023-05-31T05:21:01;23.38;;;17.67;;
53666;SDS011;39568;51.026;5.468;2023-05-31T05:23:28;20.30;;;18.02;;
53666;SDS011;39568;51.026;5.468;2023-05-31T05:25:58;22.98;;;16.38;;
53666;SDS011;39568;51.026;5.468;2023-05-31T05:28:27;21.42;;;16.83;;
53666;SDS011;39568;51.026;5.468;2023-05-31T05:30:56;18.92;;;15.52;;
53666;SDS011;39568;51.026;5.468;2023-05-31T05:33:22;18.88;;;14.82;;
53666;SDS011;39568;51.026;5.468;2023-05-31T05:35:50;17.95;;;14.73;;
53666;SDS011;39568;51.026;5.468;2023-05-31T05:38:16;19.75;;;14.27;;
53666;SDS011;39568;51.026;5.468;2023-05-31T05:40:43;25.23;;;15.38;;
53666;SDS011;39568;51.026;5.468;2023-05-31T05:43:10;20.23;;;14.55;;
53666;SDS011;39568;51.026;5.468;2023-05-31T05:45:36;16.15;;;13.95;;
53666;SDS011;39568;51.026;5.468;2023-05-31T05:48:04;18.55;;;13.77;;
53666;SDS011;39568;51.026;5.468;2023-05-31T05:50:31;18.30;;;14.25;;
53666;SDS011;39568;51.026;5.468;2023-05-31T05:52:58;17.83;;;14.05;;
53666;SDS011;39568;51.026;5.468;2023-05-31T05:55:24;21.20;;;14.27;;
53666;SDS011;39568;51.026;5.468;2023-05-31T05:57:51;18.33;;;14.10;;
53666;SDS011;39568;51.026;5.468;2023-05-31T06:00:18;16.33;;;13.70;;
53666;SDS011;39568;51.026;5.468;2023-05-31T06:02:46;18.48;;;13.63;;
53666;SDS011;39568;51.026;5.468;2023-05-31T06:05:14;14.00;;;12.57;;
53666;SDS011;39568;51.026;5.468;2023-05-31T06:07:41;20.85;;;13.75;;
53666;SDS011;39568;51.026;5.468;2023-05-31T06:10:08;15.70;;;12.48;;
53666;SDS011;39568;51.026;5.468;2023-05-31T06:12:35;25.08;;;13.10;;
53666;SDS011;39568;51.026;5.468;2023-05-31T06:15:02;17.02;;;12.20;;
53666;SDS011;39568;51.026;5.468;2023-05-31T06:17:29;18.27;;;12.43;;
53666;SDS011;39568;51.026;5.468;2023-05-31T06:19:55;16.55;;;12.55;;
53666;SDS011;39568;51.026;5.468;2023-05-31T06:22:23;17.88;;;12.20;;
53666;SDS011;39568;51.026;5.468;2023-05-31T06:24:50;16.50;;;12.68;;
53666;SDS011;39568;51.026;5.468;2023-05-31T06:27:18;19.98;;;12.65;;
53666;SDS011;39568;51.026;5.468;2023-05-31T06:29:45;18.23;;;12.27;;
53666;SDS011;39568;51.026;5.468;2023-05-31T06:32:12;16.65;;;10.82;;
53666;SDS011;39568;51.026;5.468;2023-05-31T06:34:38;14.02;;;11.52;;
53666;SDS011;39568;51.026;5.468;2023-05-31T06:37:05;27.70;;;13.85;;
53666;SDS011;39568;51.026;5.468;2023-05-31T06:39:35;28.05;;;11.30;;
53666;SDS011;39568;51.026;5.468;2023-05-31T06:42:02;17.13;;;12.10;;
53666;SDS011;39568;51.026;5.468;2023-05-31T06:44:28;18.75;;;10.90;;
53666;SDS011;39568;51.026;5.468;2023-05-31T06:46:55;22.10;;;12.25;;
53666;SDS011;39568;51.026;5.468;2023-05-31T06:49:22;14.77;;;12.15;;
53666;SDS011;39568;51.026;5.468;2023-05-31T06:51:48;17.10;;;11.13;;
53666;SDS011;39568;51.026;5.468;2023-05-31T06:54:15;16.90;;;11.25;;
53666;SDS011;39568;51.026;5.468;2023-05-31T06:56:43;17.15;;;11.30;;
53666;SDS011;39568;51.026;5.468;2023-05-31T06:59:10;13.13;;;10.23;;
53666;SDS011;39568;51.026;5.468;2023-05-31T07:01:36;15.35;;;10.32;;
53666;SDS011;39568;51.026;5.468;2023-05-31T07:04:03;16.10;;;10.15;;
53666;SDS011;39568;51.026;5.468;2023-05-31T07:06:30;11.32;;;10.15;;
53666;SDS011;39568;51.026;5.468;2023-05-31T07:08:57;16.73;;;11.00;;
53666;SDS011;39568;51.026;5.468;2023-05-31T07:11:23;13.23;;;10.10;;
53666;SDS011;39568;51.026;5.468;2023-05-31T07:13:52;14.20;;;10.02;;
53666;SDS011;39568;51.026;5.468;2023-05-31T07:16:19;11.93;;;9.00;;
53666;SDS011;39568;51.026;5.468;2023-05-31T07:18:46;18.70;;;9.10;;
53666;SDS011;39568;51.026;5.468;2023-05-31T07:21:12;18.77;;;9.27;;
53666;SDS011;39568;51.026;5.468;2023-05-31T07:23:39;20.30;;;9.13;;
53666;SDS011;39568;51.026;5.468;2023-05-31T07:26:06;20.10;;;10.00;;
53666;SDS011;39568;51.026;5.468;2023-05-31T07:28:32;12.82;;;10.40;;
53666;SDS011;39568;51.026;5.468;2023-05-31T07:31:01;13.95;;;8.00;;
53666;SDS011;39568;51.026;5.468;2023-05-31T07:33:28;13.93;;;8.27;;
53666;SDS011;39568;51.026;5.468;2023-05-31T07:35:54;11.88;;;9.65;;
53666;SDS011;39568;51.026;5.468;2023-05-31T07:38:21;13.52;;;8.20;;
53666;SDS011;39568;51.026;5.468;2023-05-31T07:40:48;11.00;;;8.07;;
53666;SDS011;39568;51.026;5.468;2023-05-31T07:43:14;13.45;;;8.43;;
53666;SDS011;39568;51.026;5.468;2023-05-31T07:45:41;15.32;;;8.65;;
53666;SDS011;39568;51.026;5.468;2023-05-31T07:48:09;16.98;;;8.88;;
53666;SDS011;39568;51.026;5.468;2023-05-31T07:50:36;14.98;;;7.95;;
53666;SDS011;39568;51.026;5.468;2023-05-31T07:53:02;10.63;;;7.93;;
53666;SDS011;39568;51.026;5.468;2023-05-31T07:55:29;14.48;;;7.97;;
53666;SDS011;39568;51.026;5.468;2023-05-31T07:57:56;16.88;;;7.95;;
53666;SDS011;39568;51.026;5.468;2023-05-31T08:00:23;10.73;;;8.40;;
53666;SDS011;39568;51.026;5.468;2023-05-31T08:02:49;11.80;;;8.80;;
53666;SDS011;39568;51.026;5.468;2023-05-31T08:05:18;9.70;;;7.55;;
53666;SDS011;39568;51.026;5.468;2023-05-31T08:07:44;12.43;;;7.40;;
53666;SDS011;39568;51.026;5.468;2023-05-31T08:10:12;19.45;;;8.23;;
53666;SDS011;39568;51.026;5.468;2023-05-31T08:12:39;8.82;;;6.32;;
53666;SDS011;39568;51.026;5.468;2023-05-31T08:15:07;11.88;;;6.45;;
53666;SDS011;39568;51.026;5.468;2023-05-31T08:17:34;10.55;;;6.78;;
53666;SDS011;39568;51.026;5.468;2023-05-31T08:20:01;12.95;;;7.40;;
53666;SDS011;39568;51.026;5.468;2023-05-31T08:22:32;9.10;;;5.90;;
53666;SDS011;39568;51.026;5.468;2023-05-31T08:24:59;14.32;;;6.22;;
53666;SDS011;39568;51.026;5.468;2023-05-31T08:27:26;12.07;;;5.60;;
53666;SDS011;39568;51.026;5.468;2023-05-31T08:29:53;12.30;;;5.90;;
53666;SDS011;39568;51.026;5.468;2023-05-31T08:32:19;12.23;;;6.03;;
53666;SDS011;39568;51.026;5.468;2023-05-31T08:34:46;12.57;;;6.55;;
53666;SDS011;39568;51.026;5.468;2023-05-31T08:37:13;10.55;;;6.40;;
53666;SDS011;39568;51.026;5.468;2023-05-31T08:39:41;10.25;;;6.35;;
53666;SDS011;39568;51.026;5.468;2023-05-31T08:42:10;15.63;;;6.70;;
53666;SDS011;39568;51.026;5.468;2023-05-31T08:44:40;11.40;;;5.38;;
53666;SDS011;39568;51.026;5.468;2023-05-31T08:47:08;10.55;;;6.03;;
53666;SDS011;39568;51.026;5.468;2023-05-31T08:49:40;14.02;;;6.15;;
53666;SDS011;39568;51.026;5.468;2023-05-31T08:52:10;19.85;;;7.05;;
53666;SDS011;39568;51.026;5.468;2023-05-31T08:54:37;14.80;;;7.88;;
53666;SDS011;39568;51.026;5.468;2023-05-31T08:57:06;6.75;;;5.32;;
53666;SDS011;39568;51.026;5.468;2023-05-31T08:59:35;15.27;;;6.32;;
53666;SDS011;39568;51.026;5.468;2023-05-31T09:02:02;15.20;;;6.95;;
53666;SDS011;39568;51.026;5.468;2023-05-31T09:04:29;12.55;;;5.50;;
53666;SDS011;39568;51.026;5.468;2023-05-31T09:06:56;13.13;;;6.13;;
53666;SDS011;39568;51.026;5.468;2023-05-31T09:09:23;14.00;;;5.00;;
53666;SDS011;39568;51.026;5.468;2023-05-31T09:11:49;14.32;;;6.47;;
53666;SDS011;39568;51.026;5.468;2023-05-31T09:14:17;14.50;;;4.95;;
53666;SDS011;39568;51.026;5.468;2023-05-31T09:16:44;8.40;;;4.80;;
53666;SDS011;39568;51.026;5.468;2023-05-31T09:19:11;14.27;;;6.03;;
53666;SDS011;39568;51.026;5.468;2023-05-31T09:21:38;11.00;;;6.05;;
53666;SDS011;39568;51.026;5.468;2023-05-31T09:24:05;10.48;;;5.22;;
53666;SDS011;39568;51.026;5.468;2023-05-31T09:26:33;12.32;;;4.70;;
53666;SDS011;39568;51.026;5.468;2023-05-31T09:28:59;19.50;;;7.28;;
53666;SDS011;39568;51.026;5.468;2023-05-31T09:31:28;10.45;;;5.35;;
53666;SDS011;39568;51.026;5.468;2023-05-31T09:33:54;10.30;;;4.70;;
53666;SDS011;39568;51.026;5.468;2023-05-31T09:36:23;8.70;;;5.15;;
53666;SDS011;39568;51.026;5.468;2023-05-31T09:38:51;11.50;;;5.30;;
53666;SDS011;39568;51.026;5.468;2023-05-31T09:41:26;14.80;;;4.50;;
53666;SDS011;39568;51.026;5.468;2023-05-31T09:43:53;6.75;;;4.38;;
53666;SDS011;39568;51.026;5.468;2023-05-31T09:46:20;5.40;;;4.47;;
53666;SDS011;39568;51.026;5.468;2023-05-31T09:48:57;4.82;;;4.30;;
53666;SDS011;39568;51.026;5.468;2023-05-31T09:51:25;9.80;;;4.78;;
53666;SDS011;39568;51.026;5.468;2023-05-31T09:53:52;14.10;;;6.03;;
53666;SDS011;39568;51.026;5.468;2023-05-31T09:56:21;6.75;;;4.65;;
53666;SDS011;39568;51.026;5.468;2023-05-31T09:58:50;7.63;;;4.93;;
53666;SDS011;39568;51.026;5.468;2023-05-31T10:01:17;7.65;;;4.90;;
53666;SDS011;39568;51.026;5.468;2023-05-31T10:03:45;4.32;;;3.83;;
53666;SDS011;39568;51.026;5.468;2023-05-31T10:06:14;7.78;;;4.30;;
53666;SDS011;39568;51.026;5.468;2023-05-31T10:08:42;8.73;;;4.90;;
53666;SDS011;39568;51.026;5.468;2023-05-31T10:11:09;10.13;;;5.53;;
53666;SDS011;39568;51.026;5.468;2023-05-31T10:13:38;7.53;;;4.18;;
53666;SDS011;39568;51.026;5.468;2023-05-31T10:16:08;12.48;;;4.28;;
53666;SDS011;39568;51.026;5.468;2023-05-31T10:18:36;13.02;;;4.28;;
53666;SDS011;39568;51.026;5.468;2023-05-31T10:21:06;13.50;;;4.13;;
53666;SDS011;39568;51.026;5.468;2023-05-31T10:23:37;9.20;;;4.60;;
53666;SDS011;39568;51.026;5.468;2023-05-31T10:26:11;12.18;;;3.83;;
53666;SDS011;39568;51.026;5.468;2023-05-31T10:28:44;7.68;;;3.55;;
53666;SDS011;39568;51.026;5.468;2023-05-31T10:31:14;5.93;;;3.53;;
53666;SDS011;39568;51.026;5.468;2023-05-31T10:33:42;14.57;;;3.65;;
53666;SDS011;39568;51.026;5.468;2023-05-31T10:36:13;7.55;;;3.83;;
53666;SDS011;39568;51.026;5.468;2023-05-31T10:38:45;12.23;;;4.15;;
53666;SDS011;39568;51.026;5.468;2023-05-31T10:41:19;7.28;;;3.45;;
53666;SDS011;39568;51.026;5.468;2023-05-31T10:43:50;8.15;;;3.35;;
53666;SDS011;39568;51.026;5.468;2023-05-31T10:46:22;6.22;;;2.83;;
53666;SDS011;39568;51.026;5.468;2023-05-31T10:48:53;7.57;;;3.60;;
53666;SDS011;39568;51.026;5.468;2023-05-31T10:51:37;7.18;;;3.30;;
53666;SDS011;39568;51.026;5.468;2023-05-31T10:54:06;5.78;;;2.58;;
53666;SDS011;39568;51.026;5.468;2023-05-31T10:56:32;7.95;;;3.22;;
53666;SDS011;39568;51.026;5.468;2023-05-31T11:01:29;7.20;;;3.35;;
53666;SDS011;39568;51.026;5.468;2023-05-31T11:03:56;10.85;;;2.40;;
53666;SDS011;39568;51.026;5.468;2023-05-31T11:06:23;8.07;;;3.25;;
53666;SDS011;39568;51.026;5.468;2023-05-31T11:08:57;14.95;;;3.53;;
53666;SDS011;39568;51.026;5.468;2023-05-31T11:11:27;8.77;;;3.10;;
53666;SDS011;39568;51.026;5.468;2023-05-31T11:14:22;7.40;;;2.45;;
53666;SDS011;39568;51.026;5.468;2023-05-31T11:19:41;7.63;;;2.78;;
53666;SDS011;39568;51.026;5.468;2023-05-31T11:22:10;7.20;;;3.03;;
53666;SDS011;39568;51.026;5.468;2023-05-31T11:24:39;9.30;;;2.63;;
53666;SDS011;39568;51.026;5.468;2023-05-31T11:27:17;7.47;;;2.88;;
53666;SDS011;39568;51.026;5.468;2023-05-31T11:29:57;11.55;;;3.45;;
53666;SDS011;39568;51.026;5.468;2023-05-31T11:35:26;4.85;;;2.35;;
53666;SDS011;39568;51.026;5.468;2023-05-31T11:38:03;5.47;;;2.85;;
53666;SDS011;39568;51.026;5.468;2023-05-31T11:40:31;6.68;;;2.80;;
53666;SDS011;39568;51.026;5.468;2023-05-31T11:43:08;11.80;;;3.25;;
53666;SDS011;39568;51.026;5.468;2023-05-31T11:45:40;7.32;;;2.35;;
53666;SDS011;39568;51.026;5.468;2023-05-31T11:48:24;7.90;;;2.22;;
53666;SDS011;39568;51.026;5.468;2023-05-31T11:50:56;5.15;;;2.47;;
53666;SDS011;39568;51.026;5.468;2023-05-31T11:53:23;8.00;;;2.78;;
53666;SDS011;39568;51.026;5.468;2023-05-31T11:55:52;8.48;;;2.13;;
53666;SDS011;39568;51.026;5.468;2023-05-31T11:58:20;8.60;;;2.20;;
53666;SDS011;39568;51.026;5.468;2023-05-31T12:00:48;10.30;;;2.22;;
53666;SDS011;39568;51.026;5.468;2023-05-31T12:03:15;5.70;;;2.17;;
53666;SDS011;39568;51.026;5.468;2023-05-31T12:05:48;6.93;;;2.42;;
53666;SDS011;39568;51.026;5.468;2023-05-31T12:08:16;4.78;;;2.53;;
53666;SDS011;39568;51.026;5.468;2023-05-31T12:10:43;5.45;;;2.35;;
53666;SDS011;39568;51.026;5.468;2023-05-31T12:13:10;8.77;;;2.45;;
53666;SDS011;39568;51.026;5.468;2023-05-31T12:15:39;9.15;;;2.15;;
53666;SDS011;39568;51.026;5.468;2023-05-31T12:18:05;6.20;;;2.25;;
53666;SDS011;39568;51.026;5.468;2023-05-31T12:20:33;9.23;;;2.55;;
53666;SDS011;39568;51.026;5.468;2023-05-31T12:23:09;6.75;;;2.13;;
53666;SDS011;39568;51.026;5.468;2023-05-31T12:25:37;7.22;;;2.30;;
53666;SDS011;39568;51.026;5.468;2023-05-31T12:28:09;5.45;;;2.05;;
53666;SDS011;39568;51.026;5.468;2023-05-31T12:30:42;4.03;;;2.28;;
53666;SDS011;39568;51.026;5.468;2023-05-31T12:33:12;4.78;;;2.20;;
53666;SDS011;39568;51.026;5.468;2023-05-31T12:35:39;2.38;;;2.17;;
53666;SDS011;39568;51.026;5.468;2023-05-31T12:38:07;12.85;;;2.08;;
53666;SDS011;39568;51.026;5.468;2023-05-31T12:40:36;6.68;;;2.33;;
53666;SDS011;39568;51.026;5.468;2023-05-31T12:45:29;8.00;;;2.35;;
53666;SDS011;39568;51.026;5.468;2023-05-31T12:47:57;8.85;;;2.45;;
53666;SDS011;39568;51.026;5.468;2023-05-31T12:50:27;8.48;;;2.70;;
53666;SDS011;39568;51.026;5.468;2023-05-31T12:52:55;11.35;;;2.65;;
53666;SDS011;39568;51.026;5.468;2023-05-31T12:55:22;18.92;;;3.85;;
53666;SDS011;39568;51.026;5.468;2023-05-31T12:57:49;6.40;;;2.65;;
53666;SDS011;39568;51.026;5.468;2023-05-31T13:00:16;9.02;;;2.25;;
53666;SDS011;39568;51.026;5.468;2023-05-31T13:02:44;5.25;;;2.00;;
53666;SDS011;39568;51.026;5.468;2023-05-31T13:05:12;6.82;;;2.53;;
53666;SDS011;39568;51.026;5.468;2023-05-31T13:07:39;5.90;;;2.13;;
53666;SDS011;39568;51.026;5.468;2023-05-31T13:10:09;10.27;;;2.42;;
53666;SDS011;39568;51.026;5.468;2023-05-31T13:12:40;6.28;;;2.20;;
53666;SDS011;39568;51.026;5.468;2023-05-31T13:15:07;8.45;;;2.45;;
53666;SDS011;39568;51.026;5.468;2023-05-31T13:17:35;7.88;;;2.35;;
53666;SDS011;39568;51.026;5.468;2023-05-31T13:20:02;5.85;;;2.33;;
53666;SDS011;39568;51.026;5.468;2023-05-31T13:22:31;14.95;;;2.50;;
53666;SDS011;39568;51.026;5.468;2023-05-31T13:24:58;5.57;;;2.58;;
53666;SDS011;39568;51.026;5.468;2023-05-31T13:27:24;11.70;;;2.85;;
53666;SDS011;39568;51.026;5.468;2023-05-31T13:29:51;3.72;;;2.20;;
53666;SDS011;39568;51.026;5.468;2023-05-31T13:32:18;7.15;;;1.88;;
53666;SDS011;39568;51.026;5.468;2023-05-31T13:34:44;6.85;;;2.55;;
53666;SDS011;39568;51.026;5.468;2023-05-31T13:37:11;8.18;;;2.17;;
53666;SDS011;39568;51.026;5.468;2023-05-31T13:39:39;6.68;;;1.95;;
53666;SDS011;39568;51.026;5.468;2023-05-31T13:42:06;9.27;;;2.27;;
53666;SDS011;39568;51.026;5.468;2023-05-31T13:44:34;6.40;;;1.85;;
53666;SDS011;39568;51.026;5.468;2023-05-31T13:47:01;10.00;;;2.80;;
53666;SDS011;39568;51.026;5.468;2023-05-31T13:49:27;3.60;;;1.92;;
53666;SDS011;39568;51.026;5.468;2023-05-31T13:51:54;7.18;;;2.00;;
53666;SDS011;39568;51.026;5.468;2023-05-31T13:54:21;10.85;;;2.40;;
53666;SDS011;39568;51.026;5.468;2023-05-31T13:56:49;7.68;;;2.38;;
53666;SDS011;39568;51.026;5.468;2023-05-31T13:59:16;10.55;;;2.10;;
53666;SDS011;39568;51.026;5.468;2023-05-31T14:01:42;8.60;;;2.35;;
53666;SDS011;39568;51.026;5.468;2023-05-31T14:04:09;7.60;;;2.20;;
53666;SDS011;39568;51.026;5.468;2023-05-31T14:06:37;12.65;;;2.97;;
53666;SDS011;39568;51.026;5.468;2023-05-31T14:09:03;4.93;;;1.88;;
53666;SDS011;39568;51.026;5.468;2023-05-31T14:11:30;7.97;;;1.88;;
53666;SDS011;39568;51.026;5.468;2023-05-31T14:13:58;4.35;;;1.70;;
53666;SDS011;39568;51.026;5.468;2023-05-31T14:16:25;4.63;;;2.25;;
53666;SDS011;39568;51.026;5.468;2023-05-31T14:18:53;6.72;;;1.50;;
53666;SDS011;39568;51.026;5.468;2023-05-31T14:21:20;5.63;;;1.88;;
53666;SDS011;39568;51.026;5.468;2023-05-31T14:23:46;9.25;;;1.67;;
53666;SDS011;39568;51.026;5.468;2023-05-31T14:26:13;3.97;;;1.70;;
53666;SDS011;39568;51.026;5.468;2023-05-31T14:28:40;7.55;;;1.65;;
53666;SDS011;39568;51.026;5.468;2023-05-31T14:31:08;4.18;;;2.03;;
53666;SDS011;39568;51.026;5.468;2023-05-31T14:33:38;7.13;;;1.85;;
53666;SDS011;39568;51.026;5.468;2023-05-31T14:36:04;2.63;;;1.50;;
53666;SDS011;39568;51.026;5.468;2023-05-31T14:38:31;6.88;;;2.15;;
53666;SDS011;39568;51.026;5.468;2023-05-31T14:40:58;4.05;;;1.42;;
53666;SDS011;39568;51.026;5.468;2023-05-31T14:43:25;4.18;;;1.77;;
53666;SDS011;39568;51.026;5.468;2023-05-31T14:45:51;7.55;;;2.28;;
53666;SDS011;39568;51.026;5.468;2023-05-31T14:48:19;4.95;;;1.85;;
53666;SDS011;39568;51.026;5.468;2023-05-31T14:50:46;11.25;;;1.77;;